createdAt,value
2022-10-01T00:04:54.728Z,25.75
2022-10-01T00:09:58.351Z,25.75
2022-10-01T00:15:05.617Z,25.76
2022-10-01T00:20:14.183Z,25.78
2022-10-01T00:25:17.683Z,25.80
2022-10-01T00:30:21.250Z,25.86
2022-10-01T00:35:24.726Z,25.87
2022-10-01T00:40:27.910Z,25.88
2022-10-01T00:45:31.231Z,25.86
2022-10-01T00:50:36.873Z,25.89
2022-10-01T00:55:47.137Z,25.94
2022-10-01T01:00:54.157Z,25.93
2022-10-01T01:05:58.240Z,25.91
2022-10-01T01:11:36.832Z,25.88
2022-10-01T01:16:56.805Z,25.87
2022-10-01T01:22:04.650Z,25.86
2022-10-01T01:27:23.804Z,25.85
2022-10-01T01:32:40.016Z,25.82
2022-10-01T01:37:49.708Z,25.81
2022-10-01T01:42:55.323Z,25.79
2022-10-01T01:48:01.291Z,25.76
2022-10-01T01:53:04.858Z,25.73
2022-10-01T01:58:08.242Z,25.68
2022-10-01T02:03:11.577Z,25.64
2022-10-01T02:08:30.733Z,25.60
2022-10-01T02:13:50.102Z,25.53
2022-10-01T02:19:30.511Z,25.49
2022-10-01T02:24:39.372Z,25.42
2022-10-01T02:29:50.895Z,25.41
2022-10-01T02:34:55.393Z,25.38
2022-10-01T02:40:01.831Z,25.37
2022-10-01T02:45:08.004Z,25.34
2022-10-01T02:50:12.640Z,25.28
2022-10-01T02:55:38.622Z,25.31
2022-10-01T03:00:42.216Z,25.26
2022-10-01T03:05:45.740Z,25.25
2022-10-01T03:10:49.207Z,25.20
2022-10-01T03:15:54.047Z,25.17
2022-10-01T03:20:57.562Z,25.11
2022-10-01T03:26:00.929Z,25.11
2022-10-01T03:31:11.495Z,25.08
2022-10-01T03:36:15.151Z,25.06
2022-10-01T03:41:18.924Z,25.06
2022-10-01T03:46:22.510Z,25.02
2022-10-01T03:51:25.735Z,24.97
2022-10-01T03:56:29.302Z,24.99
2022-10-01T04:01:33.079Z,25.00
2022-10-01T04:06:36.672Z,25.05
2022-10-01T04:11:40.087Z,25.11
2022-10-01T04:16:43.487Z,25.19
2022-10-01T04:21:47.144Z,25.31
2022-10-01T04:26:51.896Z,25.42
2022-10-01T04:31:55.262Z,25.52
2022-10-01T04:36:58.778Z,25.65
2022-10-01T04:42:02.397Z,25.73
2022-10-01T04:47:07.394Z,25.86
2022-10-01T04:52:10.810Z,26.01
2022-10-01T04:57:16.890Z,26.42
2022-10-01T05:02:23.441Z,27.36
2022-10-01T05:07:26.973Z,28.17
2022-10-01T05:12:30.921Z,28.56
2022-10-01T05:17:34.440Z,28.48
2022-10-01T05:22:41.539Z,28.29
2022-10-01T05:27:45.607Z,28.15
2022-10-01T05:33:01.068Z,28.13
2022-10-01T05:38:04.376Z,28.12
2022-10-01T05:43:07.692Z,28.02
2022-10-01T05:48:12.141Z,27.93
2022-10-01T05:53:15.657Z,27.94
2022-10-01T05:58:19.102Z,27.98
2022-10-01T06:03:23.065Z,28.06
2022-10-01T06:08:26.818Z,28.11
2022-10-01T06:13:30.952Z,28.21
2022-10-01T06:18:34.872Z,28.29
2022-10-01T06:23:38.484Z,28.38
2022-10-01T06:28:41.875Z,28.48
2022-10-01T06:33:45.924Z,28.61
2022-10-01T06:38:49.465Z,28.71
2022-10-01T06:43:52.663Z,28.77
2022-10-01T06:48:56.103Z,28.88
2022-10-01T06:53:59.305Z,28.94
2022-10-01T06:59:04.630Z,29.05
2022-10-01T07:04:09.235Z,29.08
2022-10-01T07:09:12.742Z,29.08
2022-10-01T07:14:16.487Z,29.06
2022-10-01T07:19:19.859Z,29.03
2022-10-01T07:24:23.274Z,29.05
2022-10-01T07:29:26.940Z,29.06
2022-10-01T07:34:30.803Z,29.09
2022-10-01T07:39:34.209Z,29.06
2022-10-01T07:44:37.302Z,29.05
2022-10-01T07:49:40.680Z,29.04
2022-10-01T07:54:44.008Z,29.11
2022-10-01T07:59:50.276Z,29.29
2022-10-01T08:04:55.713Z,29.41
2022-10-01T08:09:59.394Z,29.46
2022-10-01T08:15:02.531Z,29.36
2022-10-01T08:20:09.775Z,29.39
2022-10-01T08:25:13.681Z,29.41
2022-10-01T08:30:18.291Z,29.49
2022-10-01T08:35:22.175Z,29.58
2022-10-01T08:40:25.588Z,29.58
2022-10-01T08:45:41.208Z,29.69
2022-10-01T08:51:13.524Z,29.72
2022-10-01T08:56:35.341Z,29.68
2022-10-01T09:01:39.209Z,29.71
2022-10-01T09:06:48.031Z,29.73
2022-10-01T09:12:00.574Z,29.82
2022-10-01T09:17:23.029Z,29.84
2022-10-01T09:22:53.791Z,29.85
2022-10-01T09:28:36.310Z,29.83
2022-10-01T09:33:58.954Z,29.83
2022-10-01T09:39:30.532Z,29.82
2022-10-01T09:44:34.477Z,29.83
2022-10-01T09:49:45.259Z,29.80
2022-10-01T09:55:27.595Z,29.83
2022-10-01T10:00:32.646Z,29.76
2022-10-01T10:05:47.217Z,29.68
2022-10-01T10:11:10.220Z,29.74
2022-10-01T10:16:21.431Z,29.68
2022-10-01T10:21:28.187Z,29.57
2022-10-01T10:26:40.304Z,29.52
2022-10-01T10:31:45.833Z,29.54
2022-10-01T10:36:49.588Z,29.55
2022-10-01T10:41:54.405Z,29.47
2022-10-01T10:47:01.293Z,29.43
2022-10-01T10:52:20.168Z,29.28
2022-10-01T10:57:34.186Z,29.21
2022-10-01T11:02:41.473Z,29.21
2022-10-01T11:07:46.727Z,29.21
2022-10-01T11:13:17.507Z,29.20
2022-10-01T11:18:21.556Z,29.22
2022-10-01T11:23:42.884Z,29.23
2022-10-01T11:29:10.656Z,29.29
2022-10-01T11:34:46.820Z,29.42
2022-10-01T11:39:54.681Z,29.51
2022-10-01T11:45:06.380Z,29.59
2022-10-01T11:50:20.943Z,29.65
2022-10-01T11:55:38.115Z,29.67
2022-10-01T12:00:46.529Z,29.66
2022-10-01T12:05:52.387Z,29.72
2022-10-01T12:11:12.725Z,29.74
2022-10-01T12:16:39.835Z,29.81
2022-10-01T12:22:07.272Z,29.83
2022-10-01T12:27:37.786Z,29.88
2022-10-01T12:33:05.165Z,29.91
2022-10-01T12:38:30.139Z,29.91
2022-10-01T12:43:45.335Z,29.89
2022-10-01T12:49:15.772Z,29.89
2022-10-01T12:55:00.620Z,29.91
2022-10-01T13:00:30.977Z,29.85
2022-10-01T13:05:58.452Z,29.75
2022-10-01T13:11:43.418Z,29.59
2022-10-01T13:17:14.160Z,29.51
2022-10-01T13:22:36.724Z,29.40
2022-10-01T13:27:47.720Z,29.37
2022-10-01T13:33:01.174Z,29.38
2022-10-01T13:38:16.230Z,29.34
2022-10-01T13:43:23.610Z,29.27
2022-10-01T13:48:31.813Z,29.18
2022-10-01T13:53:37.548Z,29.09
2022-10-01T13:58:43.637Z,28.96
2022-10-01T14:04:04.944Z,28.86
2022-10-01T14:09:29.196Z,28.76
2022-10-01T14:14:48.954Z,28.66
2022-10-01T14:19:52.976Z,28.57
2022-10-01T14:25:14.299Z,28.51
2022-10-01T14:30:23.589Z,28.41
2022-10-01T14:35:38.727Z,28.34
2022-10-01T14:40:46.247Z,28.25
2022-10-01T14:45:59.753Z,28.16
2022-10-01T14:51:06.648Z,28.04
2022-10-01T14:56:14.444Z,27.91
2022-10-01T15:01:20.156Z,27.80
2022-10-01T15:06:28.001Z,27.64
2022-10-01T15:11:33.962Z,27.48
2022-10-01T15:16:38.299Z,27.33
2022-10-01T15:21:54.889Z,27.18
2022-10-01T15:26:58.875Z,27.05
2022-10-01T15:32:03.053Z,26.93
2022-10-01T15:37:06.388Z,26.81
2022-10-01T15:42:25.391Z,26.74
2022-10-01T15:47:34.008Z,26.66
2022-10-01T15:52:48.005Z,26.57
2022-10-01T15:58:13.303Z,26.53
2022-10-01T16:03:23.720Z,26.53
2022-10-01T16:08:35.436Z,26.47
2022-10-01T16:13:44.519Z,26.44
2022-10-01T16:18:52.465Z,26.40
2022-10-01T16:23:56.606Z,26.34
2022-10-01T16:29:01.781Z,26.30
2022-10-01T16:34:11.535Z,26.25
2022-10-01T16:39:14.729Z,26.19
2022-10-01T16:44:17.901Z,26.15
2022-10-01T16:49:21.091Z,26.08
2022-10-01T16:54:26.674Z,26.01
2022-10-01T16:59:32.539Z,25.91
2022-10-01T17:04:35.964Z,25.82
2022-10-01T17:09:40.195Z,25.80
2022-10-01T17:14:43.357Z,25.76
2022-10-01T17:19:46.815Z,25.76
2022-10-01T17:24:50.040Z,25.77
2022-10-01T17:29:53.400Z,25.74
2022-10-01T17:34:56.637Z,25.75
2022-10-01T17:40:00.985Z,25.70
2022-10-01T17:45:10.395Z,25.67
2022-10-01T17:50:15.124Z,25.62
2022-10-01T17:55:18.682Z,25.59
2022-10-01T18:00:22.294Z,25.55
2022-10-01T18:05:25.823Z,25.53
2022-10-01T18:10:29.225Z,25.50
2022-10-01T18:15:32.760Z,25.47
2022-10-01T18:20:38.125Z,25.47
2022-10-01T18:25:41.918Z,25.46
2022-10-01T18:30:48.091Z,25.43
2022-10-01T18:35:57.436Z,25.40
2022-10-01T18:41:08.027Z,25.38
2022-10-01T18:46:33.771Z,25.36
2022-10-01T18:52:11.590Z,25.34
2022-10-01T18:57:54.960Z,25.32
2022-10-01T19:03:26.502Z,25.31
2022-10-01T19:08:48.365Z,25.30
2022-10-01T19:14:06.758Z,25.29
2022-10-01T19:19:20.961Z,25.27
2022-10-01T19:24:33.608Z,25.23
2022-10-01T19:29:42.758Z,25.16
2022-10-01T19:34:56.125Z,25.14
2022-10-01T19:40:17.067Z,25.11
2022-10-01T19:45:42.499Z,25.04
2022-10-01T19:50:52.702Z,24.99
2022-10-01T19:56:01.443Z,24.96
2022-10-01T20:01:12.281Z,24.97
2022-10-01T20:06:35.363Z,24.93
2022-10-01T20:12:01.005Z,24.91
2022-10-01T20:17:16.175Z,24.92
2022-10-01T20:22:35.313Z,24.92
2022-10-01T20:27:48.494Z,24.96
2022-10-01T20:33:17.416Z,24.95
2022-10-01T20:38:24.699Z,24.96
2022-10-01T20:43:58.978Z,24.98
2022-10-01T20:49:12.811Z,24.99
2022-10-01T20:54:20.869Z,25.00
2022-10-01T20:59:30.045Z,25.02
2022-10-01T21:04:44.335Z,25.03
2022-10-01T21:09:49.707Z,25.03
2022-10-01T21:14:55.016Z,25.03
2022-10-01T21:20:33.898Z,24.98
2022-10-01T21:25:53.521Z,24.98
2022-10-01T21:31:14.992Z,24.96
2022-10-01T21:36:49.229Z,24.95
2022-10-01T21:42:12.344Z,24.93
2022-10-01T21:47:45.546Z,24.88
2022-10-01T21:53:28.874Z,24.85
2022-10-01T21:58:38.485Z,24.79
2022-10-01T22:04:14.151Z,24.75
2022-10-01T22:10:00.040Z,24.68
2022-10-01T22:15:15.557Z,24.67
2022-10-01T22:20:25.581Z,24.70
2022-10-01T22:25:32.437Z,24.69
2022-10-01T22:30:40.759Z,24.73
2022-10-01T22:35:54.316Z,24.73
2022-10-01T22:41:10.970Z,24.74
2022-10-01T22:46:58.940Z,24.74
2022-10-01T22:52:23.752Z,24.71
2022-10-01T22:58:15.378Z,24.71
2022-10-01T23:03:22.864Z,24.72
2022-10-01T23:09:00.762Z,24.73
2022-10-01T23:14:25.018Z,24.73
2022-10-01T23:19:48.656Z,24.71
2022-10-01T23:25:02.811Z,24.67
2022-10-01T23:30:11.991Z,24.64
2022-10-01T23:35:41.850Z,24.65
2022-10-01T23:40:48.092Z,24.61
2022-10-01T23:46:13.657Z,24.60
2022-10-01T23:51:27.069Z,24.58
2022-10-01T23:56:51.960Z,24.56
